TimeMST,TemperatureF,Dew PointF,Humidity,Sea Level PressureIn,VisibilityMPH,Wind Direction,Wind SpeedMPH,Gust SpeedMPH,PrecipitationIn,Events,Conditions,WindDirDegrees,DateUTC
12:53 AM,8.1,3.9,83,30.35,8.0,South,9.2,-,N/A,,Overcast,170,2014-02-10 07:53:00
1:12 AM,8.1,3.9,83,30.11,8.0,South,12.7,-,N/A,,Overcast,170,2014-02-10 08:12:00
1:53 AM,9.0,5.0,84,30.34,7.0,South,13.8,-,N/A,,Overcast,180,2014-02-10 08:53:00
2:26 AM,9.0,5.0,84,30.10,7.0,South,13.8,-,N/A,,Overcast,180,2014-02-10 09:26:00
2:53 AM,9.0,5.0,84,30.32,7.0,South,12.7,-,N/A,,Overcast,170,2014-02-10 09:53:00
3:53 AM,9.0,5.0,84,30.32,8.0,South,10.4,-,N/A,,Overcast,180,2014-02-10 10:53:00
4:53 AM,9.0,5.0,84,30.30,7.0,South,12.7,-,N/A,,Overcast,190,2014-02-10 11:53:00
5:53 AM,10.0,6.1,84,30.31,6.0,South,11.5,-,N/A,,Overcast,180,2014-02-10 12:53:00
6:53 AM,10.0,5.0,80,30.30,4.0,South,13.8,-,N/A,,Haze,180,2014-02-10 13:53:00
7:48 AM,10.4,6.8,85,30.07,2.5,South,11.5,-,N/A,,Overcast,180,2014-02-10 14:48:00
7:53 AM,10.0,7.0,87,30.31,2.0,South,10.4,-,N/A,,Overcast,190,2014-02-10 14:53:00
8:39 AM,10.9,7.0,84,30.06,2.0,South,10.4,-,N/A,,Overcast,180,2014-02-10 15:39:00
8:53 AM,10.9,8.1,88,30.28,2.0,South,9.2,-,N/A,,Overcast,170,2014-02-10 15:53:00
9:00 AM,10.9,8.1,88,30.07,1.8,South,9.2,-,N/A,,Overcast,180,2014-02-10 16:00:00
9:21 AM,10.9,8.1,88,30.07,1.8,South,11.5,-,N/A,,Overcast,170,2014-02-10 16:21:00
9:29 AM,12.0,8.1,84,30.06,2.0,South,12.7,-,N/A,,Overcast,170,2014-02-10 16:29:00
9:50 AM,12.2,8.6,85,30.07,2.5,South,13.8,-,N/A,,Overcast,190,2014-02-10 16:50:00
9:53 AM,12.0,9.0,88,30.30,2.5,South,15.0,-,N/A,,Overcast,190,2014-02-10 16:53:00
10:49 AM,14.0,10.4,86,30.09,2.5,South,5.8,-,N/A,,Overcast,180,2014-02-10 17:49:00
10:53 AM,14.0,10.0,84,30.30,2.5,South,5.8,-,N/A,,Overcast,190,2014-02-10 17:53:00
11:04 AM,14.0,10.0,84,30.08,3.0,South,8.1,-,N/A,,Overcast,180,2014-02-10 18:04:00
11:34 AM,15.1,10.0,80,30.08,4.0,South,10.4,-,N/A,,Haze,180,2014-02-10 18:34:00
11:53 AM,15.1,10.9,84,30.27,4.0,South,11.5,-,N/A,,Mostly Cloudy,190,2014-02-10 18:53:00
12:53 PM,16.0,12.0,84,30.25,5.0,SSW,10.4,-,N/A,,Partly Cloudy,200,2014-02-10 19:53:00
1:53 PM,17.1,12.0,81,30.23,5.0,SSW,8.1,-,N/A,,Haze,200,2014-02-10 20:53:00
2:53 PM,18.0,12.0,78,30.24,5.0,South,6.9,-,N/A,,Haze,180,2014-02-10 21:53:00
3:53 PM,17.1,10.9,77,30.25,5.0,South,8.1,-,N/A,,Haze,170,2014-02-10 22:53:00
4:53 PM,12.9,8.1,81,30.27,5.0,South,10.4,-,N/A,,Haze,180,2014-02-10 23:53:00
5:53 PM,12.0,8.1,84,30.32,6.0,NE,9.2,-,N/A,,Clear,40,2014-02-11 00:53:00
6:53 PM,5.0,1.0,84,30.36,5.0,Calm,Calm,-,N/A,,Mostly Cloudy,0,2014-02-11 01:53:00
7:53 PM,3.0,1.9,95,30.37,4.0,Calm,Calm,-,N/A,,Scattered Clouds,0,2014-02-11 02:53:00
8:53 PM,1.0,-2.9,83,30.38,3.0,WSW,6.9,-,N/A,,Clear,250,2014-02-11 03:53:00
9:53 PM,1.9,-2.0,83,30.36,4.0,West,9.2,-,N/A,,Clear,260,2014-02-11 04:53:00
10:53 PM,1.0,-4.0,79,30.35,5.0,West,9.2,-,N/A,,Haze,260,2014-02-11 05:53:00
11:53 PM,1.9,-2.0,83,30.33,4.0,West,11.5,-,N/A,,Clear,270,2014-02-11 06:53:00